createdAt,value
2024-05-09T00:00:49.678Z,10.10
2024-05-09T00:03:18.152Z,10.12
2024-05-09T00:05:46.709Z,10.15
2024-05-09T00:08:15.837Z,10.15
2024-05-09T00:10:49.399Z,10.16
2024-05-09T00:13:17.895Z,10.12
2024-05-09T00:15:46.254Z,10.10
2024-05-09T00:18:14.880Z,10.11
2024-05-09T00:20:46.491Z,10.12
2024-05-09T00:23:15.161Z,10.11
2024-05-09T00:25:46.363Z,10.11
2024-05-09T00:28:15.205Z,10.09
2024-05-09T00:30:43.683Z,10.08
2024-05-09T00:33:12.316Z,10.07
2024-05-09T00:35:41.249Z,10.07
2024-05-09T00:38:09.743Z,10.03
2024-05-09T00:40:43.520Z,10.03
2024-05-09T00:43:15.211Z,10.02
2024-05-09T00:45:45.756Z,9.99
2024-05-09T00:48:18.848Z,10.00
2024-05-09T00:50:50.017Z,10.01
2024-05-09T00:53:20.297Z,10.00
2024-05-09T00:55:49.121Z,10.01
2024-05-09T00:58:24.309Z,10.01
2024-05-09T01:00:52.879Z,10.03
2024-05-09T01:03:21.859Z,10.03
2024-05-09T01:05:50.841Z,10.01
2024-05-09T01:08:20.224Z,10.00
2024-05-09T01:10:48.984Z,10.01
2024-05-09T01:13:19.500Z,10.00
2024-05-09T01:15:49.577Z,10.02
2024-05-09T01:18:18.367Z,10.00
2024-05-09T01:20:46.993Z,9.99
2024-05-09T01:23:17.675Z,9.99
2024-05-09T01:25:47.128Z,9.97
2024-05-09T01:28:16.421Z,9.95
2024-05-09T01:30:45.263Z,9.95
2024-05-09T01:33:15.693Z,9.94
2024-05-09T01:35:44.602Z,9.93
2024-05-09T01:38:14.004Z,9.94
2024-05-09T01:40:45.186Z,9.92
2024-05-09T01:43:13.846Z,9.89
2024-05-09T01:45:42.448Z,9.91
2024-05-09T01:48:11.744Z,9.94
2024-05-09T01:50:43.257Z,9.94
2024-05-09T01:53:14.171Z,9.93
2024-05-09T01:55:45.426Z,9.94
2024-05-09T01:58:14.244Z,9.94
2024-05-09T02:00:43.597Z,9.95
2024-05-09T02:03:16.376Z,9.97
2024-05-09T02:05:47.732Z,9.97
2024-05-09T02:08:18.242Z,9.98
2024-05-09T02:10:50.521Z,9.99
2024-05-09T02:13:19.335Z,9.98
2024-05-09T02:15:51.545Z,9.99
2024-05-09T02:18:20.109Z,9.99
2024-05-09T02:20:51.298Z,9.99
2024-05-09T02:23:19.850Z,9.99
2024-05-09T02:25:50.366Z,9.99
2024-05-09T02:28:18.834Z,10.00
2024-05-09T02:30:47.255Z,10.00
2024-05-09T02:33:15.689Z,10.02
2024-05-09T02:35:45.722Z,10.04
2024-05-09T02:38:12.640Z,10.06
2024-05-09T02:40:41.316Z,10.07
2024-05-09T02:43:12.498Z,10.07
2024-05-09T02:45:41.657Z,10.05
2024-05-09T02:48:10.643Z,10.06
2024-05-09T02:50:40.362Z,10.06
2024-05-09T02:53:07.219Z,10.05
2024-05-09T02:55:36.019Z,10.04
2024-05-09T02:58:04.541Z,10.02
2024-05-09T03:00:39.027Z,10.01
2024-05-09T03:03:12.483Z,10.02
2024-05-09T03:05:41.125Z,10.02
2024-05-09T03:08:10.076Z,10.01
2024-05-09T03:10:38.579Z,10.05
2024-05-09T03:13:09.078Z,10.05
2024-05-09T03:15:37.731Z,10.06
2024-05-09T03:18:07.625Z,10.07
2024-05-09T03:20:35.993Z,10.06
2024-05-09T03:23:06.314Z,10.07
2024-05-09T03:25:32.949Z,10.06
2024-05-09T03:28:01.612Z,10.06
2024-05-09T03:30:36.103Z,10.08
2024-05-09T03:33:14.914Z,10.10
2024-05-09T03:35:45.114Z,10.11
2024-05-09T03:38:13.732Z,10.12
2024-05-09T03:40:46.472Z,10.12
2024-05-09T03:43:13.612Z,10.11
2024-05-09T03:45:42.120Z,10.10
2024-05-09T03:48:10.766Z,10.12
2024-05-09T03:50:39.599Z,10.06
2024-05-09T03:53:10.836Z,10.03
2024-05-09T03:55:39.732Z,10.03
2024-05-09T03:58:07.194Z,10.02
2024-05-09T04:00:38.794Z,10.05
2024-05-09T04:03:09.401Z,10.02
2024-05-09T04:05:43.561Z,10.00
2024-05-09T04:08:11.105Z,10.02
2024-05-09T04:10:39.930Z,10.02
2024-05-09T04:13:06.330Z,10.02
2024-05-09T04:15:34.770Z,10.04
2024-05-09T04:18:02.961Z,10.03
2024-05-09T04:20:38.115Z,10.01
2024-05-09T04:23:13.815Z,10.02
2024-05-09T04:25:41.817Z,10.02
2024-05-09T04:28:10.215Z,10.04
2024-05-09T04:30:39.646Z,10.05
2024-05-09T04:33:12.483Z,10.04
2024-05-09T04:35:41.233Z,10.07
2024-05-09T04:38:11.906Z,10.08
2024-05-09T04:40:38.590Z,10.08
2024-05-09T04:43:07.780Z,10.11
2024-05-09T04:45:34.334Z,10.09
2024-05-09T04:48:03.164Z,10.07
2024-05-09T04:50:36.343Z,10.07
2024-05-09T04:53:08.755Z,10.06
2024-05-09T04:55:40.231Z,10.13
2024-05-09T04:58:10.149Z,10.13
2024-05-09T05:00:38.592Z,10.15
2024-05-09T05:03:10.069Z,10.19
2024-05-09T05:05:39.614Z,10.21
2024-05-09T05:08:14.158Z,10.23
2024-05-09T05:10:43.339Z,10.27
2024-05-09T05:13:19.531Z,10.32
2024-05-09T05:15:47.447Z,10.32
2024-05-09T05:18:16.800Z,10.34
2024-05-09T05:20:44.302Z,10.37
2024-05-09T05:23:14.477Z,10.41
2024-05-09T05:25:43.677Z,10.44
2024-05-09T05:28:12.443Z,10.42
2024-05-09T05:30:43.052Z,10.40
2024-05-09T05:33:13.590Z,10.39
2024-05-09T05:35:40.443Z,10.46
2024-05-09T05:38:09.748Z,10.53
2024-05-09T05:40:38.331Z,10.57
2024-05-09T05:43:11.345Z,10.60
2024-05-09T05:45:38.467Z,10.64
2024-05-09T05:48:09.234Z,10.70
2024-05-09T05:50:37.790Z,10.73
2024-05-09T05:53:08.937Z,10.80
2024-05-09T05:55:36.252Z,10.90
2024-05-09T05:58:05.129Z,10.94
2024-05-09T06:00:38.528Z,10.96
2024-05-09T06:03:09.900Z,11.02
2024-05-09T06:05:38.961Z,11.06
2024-05-09T06:08:08.547Z,11.14
2024-05-09T06:10:39.096Z,11.18
2024-05-09T06:13:09.778Z,11.25
2024-05-09T06:15:38.207Z,11.23
2024-05-09T06:18:07.282Z,11.33
2024-05-09T06:20:36.866Z,11.37
2024-05-09T06:23:07.336Z,11.40
2024-05-09T06:25:33.973Z,11.44
2024-05-09T06:28:02.786Z,11.38
2024-05-09T06:30:37.592Z,11.49
2024-05-09T06:33:13.548Z,11.64
2024-05-09T06:35:42.085Z,11.71
2024-05-09T06:38:11.290Z,11.72
2024-05-09T06:40:40.607Z,11.73
2024-05-09T06:43:12.725Z,11.59
2024-05-09T06:45:39.389Z,11.67
2024-05-09T06:48:11.141Z,11.62
2024-05-09T06:50:39.365Z,11.79
2024-05-09T06:53:08.927Z,11.79
2024-05-09T06:55:35.774Z,11.94
2024-05-09T06:58:05.606Z,12.09
2024-05-09T07:00:38.589Z,12.18
2024-05-09T07:03:13.802Z,12.29
2024-05-09T07:05:43.047Z,12.37
2024-05-09T07:08:13.146Z,12.36
2024-05-09T07:10:39.620Z,12.39
2024-05-09T07:13:10.730Z,12.44
2024-05-09T07:15:37.217Z,12.41
2024-05-09T07:18:12.583Z,12.46
2024-05-09T07:20:40.016Z,12.62
2024-05-09T07:23:10.914Z,12.65
2024-05-09T07:25:38.439Z,12.92
2024-05-09T07:28:07.711Z,13.15
2024-05-09T07:30:35.038Z,13.03
2024-05-09T07:33:04.114Z,12.88
2024-05-09T07:35:33.325Z,12.71
2024-05-09T07:38:01.992Z,12.65
2024-05-09T07:40:35.022Z,12.87
2024-05-09T07:43:05.951Z,12.96
2024-05-09T07:53:39.058Z,12.86
2024-05-09T07:56:09.732Z,12.90
2024-05-09T07:58:38.852Z,12.84
2024-05-09T08:01:05.724Z,12.96
2024-05-09T08:03:34.621Z,12.94
2024-05-09T08:06:03.645Z,12.90
2024-05-09T08:08:32.066Z,12.85
2024-05-09T08:10:58.478Z,12.95
2024-05-09T08:13:26.888Z,13.09
2024-05-09T08:15:53.394Z,13.30
2024-05-09T08:18:21.905Z,13.28
2024-05-09T08:20:49.259Z,13.38
2024-05-09T08:23:19.861Z,13.34
2024-05-09T08:25:48.816Z,13.13
2024-05-09T08:28:17.442Z,13.06
2024-05-09T08:30:44.184Z,13.35
2024-05-09T08:33:12.806Z,13.47
2024-05-09T08:35:39.349Z,13.69
2024-05-09T08:38:08.693Z,13.98
2024-05-09T08:40:38.190Z,14.19
2024-05-09T08:43:10.849Z,14.25
2024-05-09T08:45:41.511Z,14.10
2024-05-09T08:48:10.269Z,13.92
2024-05-09T08:50:40.500Z,13.87
2024-05-09T08:53:09.650Z,13.82
2024-05-09T08:55:41.766Z,13.80
2024-05-09T08:58:17.512Z,13.74
2024-05-09T09:00:45.953Z,14.28
2024-05-09T09:03:17.338Z,14.40
2024-05-09T09:05:52.118Z,14.52
2024-05-09T09:08:21.942Z,14.41
2024-05-09T09:10:53.616Z,14.36
2024-05-09T09:13:22.193Z,14.67
2024-05-09T09:15:51.494Z,15.04
2024-05-09T09:18:20.124Z,14.95
2024-05-09T09:20:46.607Z,15.21
2024-05-09T09:23:15.212Z,15.49
2024-05-09T09:25:41.745Z,15.80
2024-05-09T09:28:12.400Z,16.00
2024-05-09T09:30:39.679Z,15.81
2024-05-09T09:33:10.033Z,15.00
2024-05-09T09:35:39.826Z,14.72
2024-05-09T09:38:10.518Z,14.66
2024-05-09T09:40:44.960Z,14.50
2024-05-09T09:43:22.245Z,14.42
2024-05-09T09:45:50.699Z,14.35
2024-05-09T09:48:21.024Z,14.14
2024-05-09T09:50:48.323Z,14.01
2024-05-09T09:53:18.038Z,14.04
2024-05-09T09:55:48.185Z,13.86
2024-05-09T09:58:19.330Z,13.74
2024-05-09T10:00:46.316Z,13.81
2024-05-09T10:03:14.986Z,13.89
2024-05-09T10:05:44.361Z,14.03
2024-05-09T10:08:17.097Z,14.16
2024-05-09T10:10:46.845Z,14.24
2024-05-09T10:13:15.814Z,14.29
2024-05-09T10:15:51.513Z,14.29
2024-05-09T10:18:23.890Z,14.26
2024-05-09T10:20:52.252Z,14.33
2024-05-09T10:23:28.407Z,14.41
2024-05-09T10:25:56.559Z,14.60
2024-05-09T10:28:27.484Z,14.69
2024-05-09T10:31:19.821Z,14.77
2024-05-09T10:33:50.768Z,14.77
2024-05-09T10:36:21.176Z,14.79
2024-05-09T10:38:50.758Z,14.84
2024-05-09T10:41:17.528Z,14.90
2024-05-09T10:43:48.832Z,14.80
2024-05-09T10:46:15.968Z,14.79
2024-05-09T10:48:46.965Z,14.63
2024-05-09T10:51:14.937Z,14.45
2024-05-09T10:53:43.956Z,14.18
2024-05-09T10:56:11.082Z,14.07
2024-05-09T10:58:39.653Z,14.03
2024-05-09T11:01:07.194Z,13.88
2024-05-09T11:03:36.657Z,13.89
2024-05-09T11:06:05.961Z,13.84
2024-05-09T11:08:35.558Z,13.88
2024-05-09T11:11:06.004Z,13.99
2024-05-09T11:13:35.328Z,14.04
2024-05-09T11:16:02.775Z,14.08
2024-05-09T11:18:35.548Z,14.15
2024-05-09T11:21:11.942Z,14.34
2024-05-09T11:23:40.502Z,14.49
2024-05-09T11:26:07.176Z,14.70
2024-05-09T11:28:35.650Z,14.87
2024-05-09T11:31:06.325Z,14.91
2024-05-09T11:33:38.422Z,14.96
2024-05-09T11:36:08.281Z,14.98
2024-05-09T11:38:36.904Z,14.97
2024-05-09T11:41:05.580Z,15.06
2024-05-09T11:43:34.382Z,15.07
2024-05-09T11:46:04.646Z,15.08
2024-05-09T11:48:33.359Z,15.09
2024-05-09T11:50:59.862Z,15.21
2024-05-09T11:53:30.278Z,15.28
2024-05-09T11:55:56.679Z,15.34
2024-05-09T11:58:25.175Z,15.53
2024-05-09T12:00:53.524Z,15.56
2024-05-09T12:03:22.297Z,15.60
2024-05-09T12:05:48.859Z,15.68
2024-05-09T12:08:17.551Z,15.89
2024-05-09T12:10:46.548Z,16.11
2024-05-09T12:13:15.153Z,16.28
2024-05-09T12:15:41.984Z,16.41
2024-05-09T12:18:10.444Z,16.56
2024-05-09T12:20:39.450Z,16.77
2024-05-09T12:23:10.423Z,16.77
2024-05-09T12:25:37.941Z,16.82
2024-05-09T12:28:09.118Z,16.85
2024-05-09T12:30:39.842Z,17.03
2024-05-09T12:33:11.845Z,17.11
2024-05-09T12:35:39.368Z,17.46
2024-05-09T12:38:07.824Z,17.68
2024-05-09T12:40:37.445Z,17.88
2024-05-09T12:43:10.990Z,17.91
2024-05-09T12:45:38.542Z,17.98
2024-05-09T12:48:10.636Z,18.00
2024-05-09T12:50:38.148Z,18.23
2024-05-09T12:53:06.899Z,18.32
2024-05-09T12:55:41.434Z,18.47
2024-05-09T12:58:19.543Z,18.42
2024-05-09T13:00:46.594Z,18.21
2024-05-09T13:03:15.751Z,17.74
2024-05-09T13:05:43.936Z,17.51
2024-05-09T13:08:12.588Z,17.22
2024-05-09T13:10:39.046Z,16.90
2024-05-09T13:13:07.619Z,16.83
2024-05-09T13:15:36.476Z,16.92
2024-05-09T13:18:05.904Z,17.01
2024-05-09T13:20:34.918Z,16.99
2024-05-09T13:23:06.842Z,16.89
2024-05-09T13:25:34.727Z,17.06
2024-05-09T13:28:03.895Z,17.31
2024-05-09T13:30:39.027Z,17.50
2024-05-09T13:33:13.568Z,17.38
2024-05-09T13:35:45.552Z,17.24
2024-05-09T13:38:17.911Z,17.09
2024-05-09T13:40:48.025Z,17.27
2024-05-09T13:43:16.866Z,17.40
2024-05-09T13:45:43.553Z,17.60
2024-05-09T13:48:14.358Z,17.63
2024-05-09T13:50:41.252Z,17.62
2024-05-09T13:53:09.798Z,17.56
2024-05-09T13:55:38.078Z,17.40
2024-05-09T13:58:06.965Z,17.28
2024-05-09T14:00:44.033Z,17.14
2024-05-09T14:03:20.778Z,17.12
2024-05-09T14:05:48.974Z,16.92
2024-05-09T14:08:18.963Z,16.88
2024-05-09T14:10:45.990Z,16.83
2024-05-09T14:13:14.596Z,16.87
2024-05-09T14:15:42.578Z,17.02
2024-05-09T14:18:13.599Z,17.00
2024-05-09T14:20:43.119Z,17.27
2024-05-09T14:23:11.773Z,17.38
2024-05-09T14:25:41.772Z,17.54
2024-05-09T14:28:12.831Z,17.60
2024-05-09T14:30:40.062Z,17.65
2024-05-09T14:33:09.460Z,17.77
2024-05-09T14:35:36.803Z,17.66
2024-05-09T14:38:09.343Z,17.58
2024-05-09T14:40:41.550Z,17.45
2024-05-09T14:43:13.497Z,17.39
2024-05-09T14:45:40.854Z,17.50
2024-05-09T14:48:10.473Z,17.57
2024-05-09T14:50:39.322Z,17.64
2024-05-09T14:53:12.928Z,17.70
2024-05-09T14:55:41.535Z,17.65
2024-05-09T14:58:12.830Z,17.70
2024-05-09T15:00:45.750Z,17.64
2024-05-09T15:03:18.595Z,17.53
2024-05-09T15:05:46.197Z,17.44
2024-05-09T15:08:19.194Z,17.32
2024-05-09T15:10:46.126Z,17.34
2024-05-09T15:13:16.663Z,17.29
2024-05-09T15:15:43.803Z,17.52
2024-05-09T15:18:12.519Z,17.65
2024-05-09T15:20:39.889Z,17.70
2024-05-09T15:23:11.534Z,17.77
2024-05-09T15:25:40.375Z,17.84
2024-05-09T15:28:09.346Z,17.81
2024-05-09T15:30:39.600Z,17.78
2024-05-09T15:33:09.123Z,17.85
2024-05-09T15:35:40.461Z,17.86
2024-05-09T15:38:09.623Z,17.85
2024-05-09T15:40:39.948Z,17.90
2024-05-09T15:43:11.978Z,17.84
2024-05-09T15:45:38.946Z,17.68
2024-05-09T15:48:10.433Z,17.59
2024-05-09T15:50:40.659Z,17.51
2024-05-09T15:53:11.922Z,17.40
2024-05-09T15:55:39.289Z,17.35
2024-05-09T15:58:08.171Z,17.26
2024-05-09T16:00:42.321Z,17.33
2024-05-09T16:03:13.867Z,17.38
2024-05-09T16:05:43.146Z,17.34
2024-05-09T16:08:12.332Z,17.29
2024-05-09T16:10:44.107Z,17.25
2024-05-09T16:13:14.063Z,17.27
2024-05-09T16:15:42.812Z,17.18
2024-05-09T16:18:13.406Z,17.10
2024-05-09T16:20:44.748Z,17.04
2024-05-09T16:23:16.427Z,17.05
2024-05-09T16:25:45.532Z,16.99
2024-05-09T16:28:14.468Z,16.91
2024-05-09T16:30:43.048Z,16.86
2024-05-09T16:33:12.448Z,16.80
2024-05-09T16:35:38.927Z,16.80
2024-05-09T16:38:07.905Z,16.74
2024-05-09T16:40:38.954Z,16.77
2024-05-09T16:43:10.368Z,16.77
2024-05-09T16:45:38.793Z,16.78
2024-05-09T16:48:10.790Z,16.76
2024-05-09T16:50:37.797Z,16.73
2024-05-09T16:53:07.330Z,16.72
2024-05-09T16:55:37.808Z,16.75
2024-05-09T16:58:08.643Z,16.73
2024-05-09T17:00:40.931Z,16.81
2024-05-09T17:03:15.825Z,16.82
2024-05-09T17:05:43.492Z,16.77
2024-05-09T17:08:12.464Z,16.81
2024-05-09T17:10:39.048Z,17.09
2024-05-09T17:13:08.317Z,17.35
2024-05-09T17:15:37.663Z,17.79
2024-05-09T17:18:07.924Z,18.20
2024-05-09T17:20:37.563Z,17.83
2024-05-09T17:23:11.734Z,17.27
2024-05-09T17:25:38.462Z,16.93
2024-05-09T17:28:08.250Z,16.67
2024-05-09T17:30:37.945Z,16.44
2024-05-09T17:33:10.243Z,16.21
2024-05-09T17:35:40.003Z,15.99
2024-05-09T17:38:09.036Z,15.86
2024-05-09T17:40:37.599Z,15.70
2024-05-09T17:43:09.399Z,15.51
2024-05-09T17:45:37.942Z,15.36
2024-05-09T17:48:07.060Z,15.18
2024-05-09T17:50:36.271Z,14.99
2024-05-09T17:53:08.433Z,14.88
2024-05-09T17:55:35.562Z,14.75
2024-05-09T17:58:05.240Z,14.61
2024-05-09T18:00:38.689Z,14.52
2024-05-09T18:03:12.511Z,14.36
2024-05-09T18:05:40.295Z,14.18
2024-05-09T18:08:11.125Z,14.00
2024-05-09T18:10:40.331Z,13.81
2024-05-09T18:13:09.704Z,13.68
2024-05-09T18:15:36.483Z,13.52
2024-05-09T18:18:05.931Z,13.34
2024-05-09T18:20:42.300Z,13.11
2024-05-09T18:23:17.935Z,12.97
2024-05-09T18:25:45.741Z,12.80
2024-05-09T18:28:14.741Z,12.71
2024-05-09T18:30:41.600Z,12.53
2024-05-09T18:33:11.944Z,12.36
2024-05-09T18:35:40.955Z,12.26
2024-05-09T18:38:10.798Z,12.09
2024-05-09T18:40:42.837Z,11.90
2024-05-09T18:43:12.624Z,11.76
2024-05-09T18:45:39.465Z,11.64
2024-05-09T18:48:09.877Z,11.49
2024-05-09T18:50:41.256Z,11.32
2024-05-09T18:53:12.542Z,11.25
2024-05-09T18:55:42.330Z,11.05
2024-05-09T18:58:10.943Z,10.93
2024-05-09T19:00:40.201Z,10.84
2024-05-09T19:03:13.510Z,10.71
2024-05-09T19:05:41.675Z,10.58
2024-05-09T19:08:11.061Z,10.46
2024-05-09T19:10:38.142Z,10.32
2024-05-09T19:13:12.315Z,10.18
2024-05-09T19:15:40.933Z,10.16
2024-05-09T19:18:10.285Z,10.12
2024-05-09T19:20:37.477Z,10.07
2024-05-09T19:23:07.705Z,9.96
2024-05-09T19:25:35.170Z,9.89
2024-05-09T19:28:04.617Z,9.84
2024-05-09T19:30:39.340Z,9.76
2024-05-09T19:33:12.272Z,9.67
2024-05-09T19:35:39.864Z,9.63
2024-05-09T19:38:08.581Z,9.57
2024-05-09T19:40:35.721Z,9.48
2024-05-09T19:43:05.936Z,9.37
2024-05-09T19:45:36.261Z,9.26
2024-05-09T19:48:06.404Z,9.16
2024-05-09T19:50:40.967Z,9.09
2024-05-09T19:53:12.644Z,8.98
2024-05-09T19:55:39.382Z,8.89
2024-05-09T19:58:08.344Z,8.84
2024-05-09T20:00:39.926Z,8.77
2024-05-09T20:03:11.187Z,8.75
2024-05-09T20:05:38.459Z,8.70
2024-05-09T20:08:08.380Z,8.70
2024-05-09T20:10:36.213Z,8.61
2024-05-09T20:13:07.706Z,8.59
2024-05-09T20:15:37.313Z,8.53
2024-05-09T20:18:06.766Z,8.48
2024-05-09T20:20:39.074Z,8.40
2024-05-09T20:23:10.436Z,8.32
2024-05-09T20:25:37.237Z,8.28
2024-05-09T20:28:09.111Z,8.20
2024-05-09T20:30:37.715Z,8.15
2024-05-09T20:33:08.730Z,8.09
2024-05-09T20:35:41.739Z,8.04
2024-05-09T20:38:10.162Z,7.98
2024-05-09T20:40:38.939Z,7.92
2024-05-09T20:43:09.260Z,7.95
2024-05-09T20:45:38.920Z,7.89
2024-05-09T20:48:09.642Z,7.86
2024-05-09T20:50:40.334Z,7.80
2024-05-09T20:53:11.558Z,7.74
2024-05-09T20:55:38.647Z,7.75
2024-05-09T20:58:07.366Z,7.67
2024-05-09T21:00:39.907Z,7.63
2024-05-09T21:03:15.628Z,7.59
2024-05-09T21:05:43.419Z,7.58
2024-05-09T21:08:12.028Z,7.50
2024-05-09T21:10:38.632Z,7.46
2024-05-09T21:13:07.639Z,7.40
2024-05-09T21:15:34.300Z,7.36
2024-05-09T21:18:03.019Z,7.32
2024-05-09T21:20:33.769Z,7.26
2024-05-09T21:23:03.255Z,7.19
2024-05-09T21:25:30.599Z,7.19
2024-05-09T21:27:59.488Z,7.13
2024-05-09T21:30:32.927Z,7.08
2024-05-09T21:33:11.095Z,7.10
2024-05-09T21:35:41.045Z,7.06
2024-05-09T21:38:09.487Z,7.01
2024-05-09T21:40:37.497Z,6.97
2024-05-09T21:43:08.625Z,6.92
2024-05-09T21:45:35.572Z,6.88
2024-05-09T21:48:05.198Z,6.82
2024-05-09T21:50:38.951Z,6.79
2024-05-09T21:53:13.132Z,6.71
2024-05-09T21:55:40.349Z,6.62
2024-05-09T21:58:12.044Z,6.60
2024-05-09T22:00:39.764Z,6.54
2024-05-09T22:03:09.607Z,6.51
2024-05-09T22:05:37.569Z,6.47
2024-05-09T22:08:06.950Z,6.46
2024-05-09T22:10:36.727Z,6.40
2024-05-09T22:13:06.673Z,6.37
2024-05-09T22:15:34.822Z,6.37
2024-05-09T22:18:03.651Z,6.32
2024-05-09T22:20:36.647Z,6.25
2024-05-09T22:23:07.827Z,6.22
2024-05-09T22:25:37.788Z,6.17
2024-05-09T22:28:07.082Z,6.14
2024-05-09T22:30:37.588Z,6.05
2024-05-09T22:33:09.772Z,6.01
2024-05-09T22:35:37.620Z,5.97
2024-05-09T22:38:06.744Z,5.93
2024-05-09T22:40:42.742Z,5.88
2024-05-09T22:43:22.646Z,5.87
2024-05-09T22:45:51.073Z,5.80
2024-05-09T22:48:19.938Z,5.74
2024-05-09T22:50:46.451Z,5.76
2024-05-09T22:53:14.917Z,5.72
2024-05-09T22:55:41.428Z,5.60
2024-05-09T22:58:10.043Z,5.52
2024-05-09T23:00:38.626Z,5.52
2024-05-09T23:03:07.683Z,5.49
2024-05-09T23:05:34.223Z,5.39
2024-05-09T23:08:03.573Z,5.30
2024-05-09T23:10:35.800Z,5.24
2024-05-09T23:13:07.734Z,5.19
2024-05-09T23:15:35.791Z,5.17
2024-05-09T23:18:07.164Z,5.12
2024-05-09T23:20:38.144Z,5.05
2024-05-09T23:23:08.988Z,5.03
2024-05-09T23:25:36.246Z,5.01
2024-05-09T23:28:04.998Z,4.99
2024-05-09T23:30:37.602Z,4.96
2024-05-09T23:33:11.498Z,4.95
2024-05-09T23:35:38.024Z,4.90
2024-05-09T23:38:06.726Z,4.89
2024-05-09T23:40:38.728Z,4.85
2024-05-09T23:43:10.018Z,4.79
2024-05-09T23:45:37.197Z,4.74
2024-05-09T23:48:07.083Z,4.69
2024-05-09T23:50:38.160Z,4.65
2024-05-09T23:53:09.636Z,4.63
2024-05-09T23:55:37.012Z,4.65
2024-05-09T23:58:06.001Z,4.61
